createdAt,value
2023-02-01T00:03:59.462Z,4.38
2023-02-01T00:09:06.053Z,4.32
2023-02-01T00:14:11.860Z,4.30
2023-02-01T00:19:19.865Z,4.36
2023-02-01T00:24:24.721Z,4.34
2023-02-01T00:29:29.903Z,4.35
2023-02-01T00:34:37.660Z,4.28
2023-02-01T00:39:44.932Z,4.42
2023-02-01T00:44:49.826Z,4.36
2023-02-01T00:49:57.281Z,4.41
2023-02-01T00:55:02.344Z,4.54
2023-02-01T01:00:09.663Z,4.46
2023-02-01T01:05:19.242Z,4.46
2023-02-01T01:10:24.383Z,4.43
2023-02-01T01:15:29.249Z,4.36
2023-02-01T01:20:39.389Z,4.38
2023-02-01T01:25:44.753Z,4.36
2023-02-01T01:30:49.844Z,4.34
2023-02-01T01:35:58.117Z,4.35
2023-02-01T01:41:03.199Z,4.44
2023-02-01T01:46:08.391Z,4.36
2023-02-01T01:51:18.049Z,4.35
2023-02-01T01:56:23.628Z,4.51
2023-02-01T02:01:29.027Z,4.43
2023-02-01T02:06:48.960Z,4.39
2023-02-01T02:11:53.960Z,4.50
2023-02-01T02:17:11.636Z,4.35
2023-02-01T02:22:52.230Z,4.43
2023-02-01T02:28:08.842Z,4.51
2023-02-01T02:33:50.810Z,4.54
2023-02-01T02:39:07.476Z,4.41
2023-02-01T02:44:35.811Z,4.46
2023-02-01T02:50:09.620Z,4.45
2023-02-01T02:55:15.860Z,4.45
2023-02-01T03:00:38.617Z,4.36
2023-02-01T03:05:52.315Z,4.24
2023-02-01T03:11:04.968Z,4.38
2023-02-01T03:16:17.688Z,4.27
2023-02-01T03:21:29.237Z,4.40
2023-02-01T03:26:39.472Z,4.30
2023-02-01T03:31:46.425Z,4.29
2023-02-01T03:36:59.652Z,4.35
2023-02-01T03:42:08.290Z,4.52
2023-02-01T03:47:21.162Z,4.40
2023-02-01T03:52:40.159Z,4.41
2023-02-01T03:57:50.167Z,4.53
2023-02-01T04:02:56.254Z,4.50
2023-02-01T04:08:06.204Z,4.50
2023-02-01T04:13:11.349Z,4.42
2023-02-01T04:18:16.274Z,4.43
2023-02-01T04:23:23.875Z,4.56
2023-02-01T04:28:29.023Z,4.48
2023-02-01T04:33:35.981Z,4.61
2023-02-01T04:38:45.764Z,4.40
2023-02-01T04:43:52.265Z,4.45
2023-02-01T04:48:57.185Z,4.51
2023-02-01T04:54:04.827Z,4.45
2023-02-01T04:59:15.982Z,4.52
2023-02-01T05:04:21.745Z,4.45
2023-02-01T05:09:29.335Z,4.57
2023-02-01T05:14:34.761Z,4.49
2023-02-01T05:19:40.781Z,4.49
2023-02-01T05:24:48.601Z,4.45
2023-02-01T05:29:55.343Z,4.52
2023-02-01T05:35:00.277Z,4.59
2023-02-01T05:40:08.758Z,4.42
2023-02-01T05:45:15.134Z,4.49
2023-02-01T05:50:20.619Z,4.61
2023-02-01T05:55:36.508Z,4.54
2023-02-01T06:00:41.337Z,4.60
2023-02-01T06:05:48.034Z,4.68
2023-02-01T06:11:02.025Z,4.62
2023-02-01T06:16:16.905Z,4.47
2023-02-01T06:21:26.796Z,4.30
2023-02-01T06:26:35.696Z,4.43
2023-02-01T06:31:40.993Z,4.25
2023-02-01T06:36:46.243Z,4.33
2023-02-01T06:41:54.079Z,4.32
2023-02-01T06:46:59.581Z,4.51
2023-02-01T06:52:04.724Z,4.38
2023-02-01T06:57:12.996Z,4.46
2023-02-01T07:02:20.225Z,4.46
2023-02-01T07:07:30.983Z,4.55
2023-02-01T07:12:39.575Z,4.51
2023-02-01T07:17:48.033Z,4.46
2023-02-01T07:22:53.121Z,4.40
2023-02-01T07:28:23.363Z,4.35
2023-02-01T07:33:36.585Z,4.06
2023-02-01T07:38:41.734Z,3.83
2023-02-01T07:43:51.733Z,3.86
2023-02-01T07:48:56.874Z,3.94
2023-02-01T07:54:02.414Z,3.87
2023-02-01T07:59:10.151Z,3.95
2023-02-01T08:04:18.273Z,3.99
2023-02-01T08:09:26.567Z,3.98
2023-02-01T08:14:34.628Z,4.06
2023-02-01T08:19:40.688Z,4.02
2023-02-01T08:24:46.432Z,3.94
2023-02-01T08:29:55.292Z,3.90
2023-02-01T08:35:00.332Z,4.01
2023-02-01T08:40:05.285Z,3.91
2023-02-01T08:45:15.675Z,3.75
2023-02-01T08:50:23.759Z,3.81
2023-02-01T08:55:29.175Z,3.89
2023-02-01T09:00:36.853Z,4.05
2023-02-01T09:05:49.371Z,4.28
2023-02-01T09:10:54.521Z,4.50
2023-02-01T09:16:02.640Z,4.62
2023-02-01T09:21:11.432Z,4.63
2023-02-01T09:26:19.624Z,4.73
2023-02-01T09:31:28.331Z,4.71
2023-02-01T09:36:34.539Z,4.78
2023-02-01T09:42:01.086Z,4.89
2023-02-01T09:47:16.064Z,4.67
2023-02-01T09:52:28.023Z,4.43
2023-02-01T09:57:48.708Z,4.08
2023-02-01T10:02:59.272Z,3.78
2023-02-01T10:08:13.856Z,3.67
2023-02-01T10:13:42.951Z,3.40
2023-02-01T10:19:19.430Z,3.38
2023-02-01T10:24:41.447Z,3.43
2023-02-01T10:29:51.383Z,3.46
2023-02-01T10:35:02.647Z,3.47
2023-02-01T10:40:21.103Z,3.49
2023-02-01T10:45:30.252Z,3.51
2023-02-01T10:50:48.126Z,3.60
2023-02-01T10:55:54.376Z,3.64
2023-02-01T11:01:04.309Z,3.67
2023-02-01T11:06:22.467Z,3.75
2023-02-01T11:11:27.787Z,4.04
2023-02-01T11:16:41.704Z,4.08
2023-02-01T11:21:54.883Z,4.26
2023-02-01T11:27:01.478Z,4.28
2023-02-01T11:32:07.725Z,4.50
2023-02-01T11:37:22.557Z,4.47
2023-02-01T11:42:32.144Z,4.56
2023-02-01T11:47:44.472Z,4.60
2023-02-01T11:53:04.998Z,4.65
2023-02-01T11:58:42.733Z,4.53
2023-02-01T12:04:27.805Z,4.57
2023-02-01T12:10:08.751Z,4.26
2023-02-01T12:15:32.231Z,4.18
2023-02-01T12:27:05.441Z,4.54
2023-02-01T12:32:30.415Z,4.56
2023-02-01T12:37:55.861Z,4.63
2023-02-01T12:43:09.653Z,4.71
2023-02-01T12:48:30.420Z,4.80
2023-02-01T12:53:49.213Z,4.84
2023-02-01T12:59:02.141Z,4.78
2023-02-01T13:04:15.517Z,4.97
2023-02-01T13:09:27.394Z,5.04
2023-02-01T13:14:42.360Z,4.93
2023-02-01T13:19:52.374Z,5.08
2023-02-01T13:25:02.826Z,5.07
2023-02-01T13:30:28.177Z,5.29
2023-02-01T13:35:51.348Z,5.36
2023-02-01T13:41:20.773Z,5.38
2023-02-01T13:46:28.827Z,5.41
2023-02-01T13:51:39.861Z,5.49
2023-02-01T13:56:47.197Z,5.49
2023-02-01T14:02:01.508Z,5.43
2023-02-01T14:07:26.995Z,5.56
2023-02-01T14:13:00.691Z,5.50
2023-02-01T14:18:46.687Z,5.47
2023-02-01T14:24:00.791Z,5.57
2023-02-01T14:29:20.848Z,5.54
2023-02-01T14:34:38.848Z,5.62
2023-02-01T14:39:57.984Z,5.53
2023-02-01T14:45:32.718Z,5.53
2023-02-01T14:50:43.863Z,5.59
2023-02-01T14:55:51.928Z,5.63
2023-02-01T15:01:01.698Z,5.54
2023-02-01T15:06:26.861Z,5.51
2023-02-01T15:11:34.188Z,5.46
2023-02-01T15:16:50.934Z,5.51
2023-02-01T15:22:01.599Z,5.46
2023-02-01T15:27:10.425Z,5.44
2023-02-01T15:32:34.353Z,5.17
2023-02-01T15:37:43.564Z,5.04
2023-02-01T15:42:57.648Z,5.13
2023-02-01T15:48:04.893Z,5.02
2023-02-01T15:53:22.125Z,5.01
2023-02-01T15:58:29.124Z,5.12
2023-02-01T16:03:41.383Z,5.16
2023-02-01T16:08:58.801Z,5.02
2023-02-01T16:14:05.902Z,5.05
2023-02-01T16:19:10.829Z,5.19
2023-02-01T16:24:20.667Z,5.12
2023-02-01T16:29:27.338Z,4.98
2023-02-01T16:34:36.481Z,4.80
2023-02-01T16:39:46.205Z,4.74
2023-02-01T16:44:51.421Z,4.61
2023-02-01T16:49:58.559Z,4.31
2023-02-01T16:55:17.657Z,4.02
2023-02-01T17:00:26.276Z,3.82
2023-02-01T17:05:31.568Z,3.45
2023-02-01T17:10:41.385Z,3.18
2023-02-01T17:16:00.809Z,2.81
2023-02-01T17:21:11.349Z,2.96
2023-02-01T17:26:19.215Z,2.85
2023-02-01T17:31:24.877Z,2.95
2023-02-01T17:36:32.781Z,3.07
2023-02-01T17:41:40.708Z,3.22
2023-02-01T17:46:46.147Z,3.04
2023-02-01T17:51:51.843Z,2.84
2023-02-01T17:57:00.383Z,2.81
2023-02-01T18:02:05.328Z,2.85
2023-02-01T18:07:11.336Z,2.71
2023-02-01T18:12:23.774Z,2.70
2023-02-01T18:17:28.971Z,2.74
2023-02-01T18:22:34.149Z,2.62
2023-02-01T18:27:42.868Z,2.75
2023-02-01T18:32:48.859Z,2.53
2023-02-01T18:37:56.640Z,2.55
2023-02-01T18:43:06.872Z,2.70
2023-02-01T18:48:13.484Z,2.69
2023-02-01T18:53:21.829Z,2.77
2023-02-01T18:58:30.616Z,2.75
2023-02-01T19:03:42.287Z,2.85
2023-02-01T19:08:51.380Z,2.90
2023-02-01T19:13:59.087Z,2.91
2023-02-01T19:19:04.041Z,2.98
2023-02-01T19:24:11.183Z,3.04
2023-02-01T19:29:19.310Z,2.92
2023-02-01T19:34:24.227Z,2.99
2023-02-01T19:39:29.169Z,2.87
2023-02-01T19:44:37.707Z,2.82
2023-02-01T19:49:42.974Z,2.90
2023-02-01T19:54:48.500Z,2.97
2023-02-01T19:59:57.291Z,2.91
2023-02-01T20:05:04.157Z,2.96
2023-02-01T20:10:11.840Z,2.87
2023-02-01T20:15:22.557Z,2.73
2023-02-01T20:20:30.817Z,2.53
2023-02-01T20:25:37.419Z,2.68
2023-02-01T20:30:47.086Z,2.80
2023-02-01T20:35:55.751Z,2.74
2023-02-01T20:41:05.960Z,2.69
2023-02-01T20:46:14.769Z,2.70
2023-02-01T20:51:23.594Z,2.73
2023-02-01T20:56:28.501Z,2.73
2023-02-01T21:01:36.213Z,2.70
2023-02-01T21:06:41.333Z,2.74
2023-02-01T21:11:46.944Z,2.82
2023-02-01T21:16:55.570Z,2.85
2023-02-01T21:22:00.491Z,2.74
2023-02-01T21:27:07.634Z,2.85
2023-02-01T21:32:17.267Z,3.04
2023-02-01T21:37:25.746Z,2.92
2023-02-01T21:42:32.052Z,2.84
2023-02-01T21:47:39.633Z,2.92
2023-02-01T21:52:47.021Z,2.95
2023-02-01T21:57:52.994Z,2.99
2023-02-01T22:03:00.508Z,3.06
2023-02-01T22:08:05.363Z,3.06
2023-02-01T22:13:10.261Z,3.00
2023-02-01T22:18:19.180Z,3.05
2023-02-01T22:23:27.664Z,3.00
2023-02-01T22:28:34.934Z,3.14
2023-02-01T22:33:42.441Z,3.05
2023-02-01T22:38:48.582Z,3.05
2023-02-01T22:43:54.210Z,2.99
2023-02-01T22:49:04.423Z,3.01
2023-02-01T22:54:09.299Z,3.04
2023-02-01T22:59:16.937Z,2.98
2023-02-01T23:04:24.769Z,3.04
2023-02-01T23:09:30.614Z,3.06
2023-02-01T23:14:55.540Z,3.11
2023-02-01T23:20:03.382Z,3.20
2023-02-01T23:25:09.178Z,3.21
2023-02-01T23:30:17.181Z,3.21
2023-02-01T23:35:25.100Z,3.18
2023-02-01T23:40:30.573Z,3.19
2023-02-01T23:45:35.830Z,3.29
2023-02-01T23:50:43.306Z,3.25
2023-02-01T23:55:48.404Z,3.32
